Time;durP1;ratioP1;P1;durP2;ratioP2;P2;SDS_P1;SDS_P2;PMS_P1;PMS_P2;Temp;Humidity;BMP_temperature;BMP_pressure;BME280_temperature;BME280_humidity;BME280_pressure;Samples;Min_cycle;Max_cycle;Signal;HPM_P1;HPM_P2
2021/09/28 00:01:04;;;;;;;6.97;4.47;;;9.20;99.90;;;;;;5249214;28;20232;-69
2021/09/28 00:03:37;;;;;;;5.43;3.83;;;9.10;99.90;;;;;;5249293;28;20242;-69
2021/09/28 00:06:11;;;;;;;6.20;4.30;;;9.10;99.90;;;;;;5250404;28;20560;-69
2021/09/28 00:08:43;;;;;;;7.00;4.53;;;9.10;99.90;;;;;;5249967;28;20207;-67
2021/09/28 00:11:15;;;;;;;5.60;4.17;;;9.10;99.90;;;;;;5250407;28;20585;-70
2021/09/28 00:13:47;;;;;;;8.23;5.03;;;9.10;99.90;;;;;;5251402;28;20515;-67
2021/09/28 00:16:19;;;;;;;10.30;5.00;;;9.10;99.90;;;;;;5250061;28;20559;-68
2021/09/28 00:18:51;;;;;;;8.40;4.53;;;9.10;99.90;;;;;;5250149;28;20221;-71
2021/09/28 00:21:23;;;;;;;9.07;4.70;;;9.00;99.90;;;;;;5250439;28;20559;-65
2021/09/28 00:23:55;;;;;;;10.20;4.60;;;9.00;99.90;;;;;;5249953;28;20220;-68
2021/09/28 00:26:27;;;;;;;8.27;4.93;;;9.00;99.90;;;;;;5249363;28;20536;-67
2021/09/28 00:28:59;;;;;;;8.23;4.90;;;9.00;99.90;;;;;;5249520;28;20539;-68
2021/09/28 00:31:31;;;;;;;9.47;5.60;;;9.00;99.90;;;;;;5248558;28;20235;-68
2021/09/28 00:34:03;;;;;;;9.70;5.50;;;9.00;99.90;;;;;;5249530;28;20204;-67
2021/09/28 00:36:40;;;;;;;7.70;5.10;;;9.00;99.90;;;;;;5249035;28;20260;-69
2021/09/28 00:39:14;;;;;;;7.00;4.90;;;8.90;99.90;;;;;;5250068;28;20185;-66
2021/09/28 00:41:48;;;;;;;8.40;4.90;;;8.90;99.90;;;;;;5249814;28;20547;-67
2021/09/28 00:44:36;;;;;;;11.53;5.27;;;8.90;99.90;;;;;;5249499;28;20189;-66
2021/09/28 00:47:10;;;;;;;7.47;5.00;;;8.90;99.90;;;;;;5248528;28;20228;-69
2021/09/28 00:49:45;;;;;;;6.93;4.43;;;8.90;99.90;;;;;;5249746;28;20537;-67
2021/09/28 00:52:19;;;;;;;6.37;4.70;;;8.90;99.90;;;;;;5249257;28;20220;-68
2021/09/28 00:54:51;;;;;;;6.47;4.77;;;8.90;99.90;;;;;;5249224;28;20209;-67
2021/09/28 00:57:23;;;;;;;5.90;4.40;;;8.90;99.90;;;;;;5249736;28;20294;-66
2021/09/28 00:59:56;;;;;;;7.73;4.73;;;8.90;99.90;;;;;;5249392;28;20201;-68
2021/09/28 01:02:28;;;;;;;6.23;4.30;;;8.90;99.90;;;;;;5249025;28;20259;-66
2021/09/28 01:05:03;;;;;;;9.87;4.63;;;8.80;99.90;;;;;;5249703;28;20200;-68
2021/09/28 01:07:35;;;;;;;7.07;4.60;;;8.80;99.90;;;;;;5249347;28;20239;-67
2021/09/28 01:10:10;;;;;;;6.07;4.30;;;8.80;99.90;;;;;;5249832;28;20291;-68
2021/09/28 01:12:44;;;;;;;7.63;4.83;;;8.80;99.90;;;;;;5248594;28;20232;-69
2021/09/28 01:15:17;;;;;;;5.97;4.37;;;8.80;99.90;;;;;;5252729;28;20215;-72
2021/09/28 01:17:49;;;;;;;5.83;4.13;;;8.80;99.90;;;;;;5253282;28;20697;-66
2021/09/28 01:20:21;;;;;;;7.37;4.73;;;8.80;99.90;;;;;;5252599;28;20520;-69
2021/09/28 01:22:53;;;;;;;9.20;4.73;;;8.80;99.90;;;;;;5252232;28;20225;-66
2021/09/28 01:25:25;;;;;;;8.10;4.50;;;8.70;99.90;;;;;;5253712;28;20573;-68
2021/09/28 01:27:57;;;;;;;6.90;4.60;;;8.70;99.90;;;;;;5253334;28;20323;-66
2021/09/28 01:30:29;;;;;;;7.37;5.10;;;8.70;99.90;;;;;;5253784;28;20608;-66
2021/09/28 01:33:01;;;;;;;8.33;4.83;;;8.70;99.90;;;;;;5253279;28;20224;-69
2021/09/28 01:35:37;;;;;;;7.00;5.27;;;8.70;99.90;;;;;;5253460;28;20213;-67
2021/09/28 01:38:09;;;;;;;9.17;4.70;;;8.70;99.90;;;;;;5253036;28;20239;-66
2021/09/28 01:40:43;;;;;;;8.80;5.17;;;8.70;99.90;;;;;;5252150;28;20181;-65
2021/09/28 01:43:16;;;;;;;6.83;4.53;;;8.60;99.90;;;;;;5253256;28;20544;-66
2021/09/28 01:45:57;;;;;;;8.73;5.40;;;8.60;99.90;;;;;;5252732;28;20216;-65
2021/09/28 01:48:45;;;;;;;6.63;4.50;;;8.60;99.90;;;;;;5252821;28;20663;-66
2021/09/28 01:51:17;;;;;;;4.93;4.07;;;8.60;99.90;;;;;;5251747;28;20266;-67
2021/09/28 01:53:49;;;;;;;7.17;4.87;;;8.60;99.90;;;;;;5252461;28;20229;-65
2021/09/28 01:56:27;;;;;;;7.13;5.30;;;8.50;99.90;;;;;;5253030;28;20255;-67
2021/09/28 01:59:04;;;;;;;6.63;4.70;;;8.50;99.90;;;;;;5251842;28;20319;-67
2021/09/28 02:01:36;;;;;;;7.50;5.30;;;8.50;99.90;;;;;;5252657;28;20243;-66
2021/09/28 02:04:08;;;;;;;6.67;4.90;;;8.50;99.90;;;;;;5252773;28;20322;-67
2021/09/28 02:06:40;;;;;;;7.20;4.60;;;8.40;99.90;;;;;;5252288;28;20204;-69
2021/09/28 02:09:15;;;;;;;7.67;5.40;;;8.50;99.90;;;;;;5251565;28;20232;-69
2021/09/28 02:11:47;;;;;;;7.27;5.67;;;8.40;99.90;;;;;;5252238;28;20208;-66
2021/09/28 02:14:19;;;;;;;7.77;5.03;;;8.40;99.90;;;;;;5252677;28;20233;-66
2021/09/28 02:16:51;;;;;;;9.13;5.03;;;8.40;99.90;;;;;;5251126;28;20228;-69
2021/09/28 02:19:23;;;;;;;6.77;5.20;;;8.40;99.90;;;;;;5251193;28;20225;-69
2021/09/28 02:21:57;;;;;;;7.57;5.43;;;8.40;99.90;;;;;;5252392;28;20211;-67
2021/09/28 02:24:29;;;;;;;7.27;5.03;;;8.30;99.90;;;;;;5251990;28;20224;-66
2021/09/28 02:27:01;;;;;;;9.53;5.37;;;8.30;99.90;;;;;;5251807;28;20276;-70
2021/09/28 02:29:33;;;;;;;6.27;5.17;;;8.30;99.90;;;;;;5251932;28;20208;-70
2021/09/28 02:32:06;;;;;;;8.60;5.77;;;8.30;99.90;;;;;;5252078;28;20276;-68
2021/09/28 02:34:38;;;;;;;7.90;5.30;;;8.30;99.90;;;;;;5252908;28;20216;-67
2021/09/28 02:37:11;;;;;;;7.17;5.27;;;8.20;99.90;;;;;;5251848;28;20663;-68
2021/09/28 02:39:46;;;;;;;7.80;5.50;;;8.20;99.90;;;;;;5250567;28;20223;-68
2021/09/28 02:42:18;;;;;;;6.40;4.93;;;8.20;99.90;;;;;;5252059;28;20226;-68
2021/09/28 02:44:52;;;;;;;6.37;5.03;;;8.30;99.90;;;;;;5251831;28;20643;-70
2021/09/28 02:47:24;;;;;;;6.97;5.20;;;8.20;99.90;;;;;;5251842;28;20628;-67
2021/09/28 02:49:56;;;;;;;6.63;5.30;;;8.20;99.90;;;;;;5251778;28;20556;-69
2021/09/28 02:52:28;;;;;;;7.67;5.67;;;8.20;99.90;;;;;;5251637;28;20207;-68
2021/09/28 02:55:00;;;;;;;8.37;5.30;;;8.20;99.90;;;;;;5250236;28;20197;-70
2021/09/28 02:57:35;;;;;;;8.03;5.80;;;8.20;99.90;;;;;;5251168;28;20217;-69
2021/09/28 03:00:11;;;;;;;7.43;5.47;;;8.20;99.90;;;;;;5251267;28;20206;-69
2021/09/28 03:02:45;;;;;;;8.20;5.90;;;8.20;99.90;;;;;;5251000;28;20279;-64
2021/09/28 03:05:17;;;;;;;7.80;6.03;;;8.10;99.90;;;;;;5251413;28;20258;-70
2021/09/28 03:07:49;;;;;;;11.07;6.40;;;8.10;99.90;;;;;;5251593;28;20205;-66
2021/09/28 03:10:21;;;;;;;8.37;6.70;;;8.10;99.90;;;;;;5251266;28;20200;-67
2021/09/28 03:12:53;;;;;;;10.37;7.30;;;8.10;99.90;;;;;;5250445;28;20247;-66
2021/09/28 03:15:25;;;;;;;9.73;7.60;;;8.10;99.90;;;;;;5251195;28;20197;-67
2021/09/28 03:17:59;;;;;;;11.63;8.93;;;8.10;99.90;;;;;;5250854;28;20205;-70
2021/09/28 03:20:31;;;;;;;13.40;10.03;;;8.10;99.90;;;;;;5249995;28;20212;-67
2021/09/28 03:23:03;;;;;;;16.30;11.63;;;8.10;99.90;;;;;;5250201;28;20201;-67
2021/09/28 03:25:41;;;;;;;16.27;12.47;;;8.10;99.90;;;;;;5250814;28;20219;-68
2021/09/28 03:28:15;;;;;;;18.13;13.43;;;8.00;99.90;;;;;;5250839;28;20189;-66
2021/09/28 03:30:47;;;;;;;22.33;15.03;;;8.10;99.90;;;;;;5250823;28;20227;-67
2021/09/28 03:33:21;;;;;;;18.37;13.63;;;8.00;99.90;;;;;;5250520;28;20209;-69
2021/09/28 03:35:54;;;;;;;19.87;14.60;;;8.00;99.90;;;;;;5248723;28;20716;-70
2021/09/28 03:38:26;;;;;;;20.37;14.90;;;8.00;99.90;;;;;;5232735;28;20215;-70
2021/09/28 03:40:58;;;;;;;19.43;14.47;;;8.00;99.90;;;;;;5250838;28;20244;-66
2021/09/28 03:43:30;;;;;;;18.40;13.87;;;8.00;99.90;;;;;;5250219;28;20647;-67
2021/09/28 03:46:02;;;;;;;19.40;14.43;;;8.00;99.90;;;;;;5250611;28;20213;-68
2021/09/28 03:48:34;;;;;;;17.30;13.53;;;8.00;99.90;;;;;;5250338;28;20562;-67
2021/09/28 03:51:07;;;;;;;15.17;11.67;;;8.00;99.90;;;;;;5249704;28;20211;-68
2021/09/28 03:53:39;;;;;;;17.40;12.13;;;8.00;99.90;;;;;;5249218;28;20200;-70
2021/09/28 03:56:11;;;;;;;17.50;12.50;;;8.00;99.90;;;;;;5250108;28;20217;-68
2021/09/28 03:58:43;;;;;;;15.73;11.67;;;8.00;99.90;;;;;;5250287;28;20201;-67
2021/09/28 04:01:15;;;;;;;15.43;11.20;;;8.00;99.90;;;;;;5232521;28;20251;-69
2021/09/28 04:03:47;;;;;;;16.33;11.77;;;8.00;99.90;;;;;;5249319;28;20243;-69
2021/09/28 04:06:22;;;;;;;15.00;10.57;;;8.00;99.90;;;;;;5250794;28;20640;-67
2021/09/28 04:08:56;;;;;;;16.63;10.97;;;8.00;99.90;;;;;;5250098;28;20236;-67
2021/09/28 04:11:28;;;;;;;14.17;11.47;;;7.90;99.90;;;;;;5249985;28;20204;-68
2021/09/28 04:14:00;;;;;;;15.70;10.97;;;7.90;99.90;;;;;;5249826;28;20264;-66
2021/09/28 04:16:32;;;;;;;13.20;9.43;;;7.90;99.90;;;;;;5249637;28;20225;-69
2021/09/28 04:19:06;;;;;;;13.10;9.67;;;7.90;99.90;;;;;;5248749;28;20208;-69
2021/09/28 04:21:39;;;;;;;13.80;9.73;;;7.90;99.90;;;;;;5249212;28;20199;-68
2021/09/28 04:24:14;;;;;;;11.93;9.13;;;7.90;99.90;;;;;;5248224;28;20228;-68
2021/09/28 04:26:49;;;;;;;12.63;9.23;;;7.90;99.90;;;;;;5249636;28;20215;-69
2021/09/28 04:29:21;;;;;;;11.20;8.87;;;7.90;99.90;;;;;;5249489;28;20234;-70
2021/09/28 04:31:53;;;;;;;13.37;8.77;;;8.00;99.90;;;;;;5249649;28;20201;-69
2021/09/28 04:34:25;;;;;;;12.00;8.07;;;8.00;99.90;;;;;;5248506;28;20213;-67
2021/09/28 04:36:57;;;;;;;9.50;8.13;;;8.00;99.90;;;;;;5249149;28;20223;-70
2021/09/28 04:39:31;;;;;;;9.53;8.53;;;8.10;99.90;;;;;;5248360;28;20232;-68
2021/09/28 04:42:03;;;;;;;11.63;7.90;;;8.10;99.90;;;;;;5248768;28;20569;-68
2021/09/28 04:44:35;;;;;;;8.37;7.40;;;8.20;99.90;;;;;;5249000;28;20224;-66
2021/09/28 04:47:10;;;;;;;10.30;8.13;;;8.20;99.90;;;;;;5248908;28;20200;-70
2021/09/28 04:49:42;;;;;;;10.23;8.50;;;8.30;99.90;;;;;;5249112;28;20228;-67
2021/09/28 04:52:14;;;;;;;9.67;7.87;;;8.30;99.90;;;;;;5248998;28;20208;-71
2021/09/28 04:54:46;;;;;;;11.43;8.10;;;8.30;99.90;;;;;;5248805;28;20687;-68
2021/09/28 04:57:18;;;;;;;10.40;7.83;;;8.40;99.90;;;;;;5248967;28;20224;-69
2021/09/28 04:59:50;;;;;;;10.33;8.20;;;8.50;99.90;;;;;;5248794;28;20228;-71
2021/09/28 05:02:24;;;;;;;9.70;7.57;;;8.50;99.90;;;;;;5248514;28;20229;-68
2021/09/28 05:04:56;;;;;;;9.23;7.73;;;8.60;99.90;;;;;;5247919;28;20231;-67
2021/09/28 05:07:28;;;;;;;9.97;8.13;;;8.60;99.90;;;;;;5249010;28;20212;-67
2021/09/28 05:10:00;;;;;;;13.67;8.33;;;8.60;99.90;;;;;;5248481;28;20558;-68
2021/09/28 05:12:33;;;;;;;11.97;8.13;;;8.60;99.90;;;;;;5249110;28;20247;-71
2021/09/28 05:15:05;;;;;;;10.87;8.20;;;8.70;99.90;;;;;;5248146;28;20659;-69
2021/09/28 05:17:40;;;;;;;13.27;8.00;;;8.70;99.90;;;;;;5249053;28;20593;-66
2021/09/28 05:20:15;;;;;;;11.23;8.27;;;8.70;99.90;;;;;;5248929;28;20228;-66
2021/09/28 05:22:47;;;;;;;10.80;7.50;;;8.70;99.90;;;;;;5248886;28;20211;-64
2021/09/28 05:25:19;;;;;;;11.60;8.40;;;8.70;99.90;;;;;;5247622;28;20220;-66
2021/09/28 05:27:50;;;;;;;12.23;9.17;;;8.80;99.90;;;;;;5249136;28;20643;-75
2021/09/28 05:30:23;;;;;;;13.07;9.77;;;8.80;99.90;;;;;;5248409;28;20240;-67
2021/09/28 05:32:55;;;;;;;12.30;8.63;;;8.90;99.90;;;;;;5247535;28;20209;-70
2021/09/28 05:35:27;;;;;;;10.83;7.87;;;8.90;99.90;;;;;;5247453;28;20233;-70
2021/09/28 05:37:59;;;;;;;13.30;8.57;;;9.00;99.90;;;;;;5247997;28;20613;-67
2021/09/28 05:40:31;;;;;;;11.37;8.77;;;9.10;99.90;;;;;;5246350;28;20246;-68
2021/09/28 05:43:08;;;;;;;12.03;8.73;;;9.20;99.90;;;;;;5246843;28;20201;-66
2021/09/28 05:45:40;;;;;;;9.63;7.90;;;9.40;99.90;;;;;;5246909;28;20232;-68
2021/09/28 05:48:14;;;;;;;9.37;7.90;;;9.50;99.90;;;;;;5247510;28;20216;-72
2021/09/28 05:50:47;;;;;;;10.30;7.90;;;9.60;99.90;;;;;;5245057;28;20240;-72
2021/09/28 05:53:19;;;;;;;8.67;7.23;;;9.70;99.90;;;;;;5247636;28;20205;-71
2021/09/28 05:55:51;;;;;;;11.20;6.97;;;9.80;99.90;;;;;;5247418;28;20584;-68
2021/09/28 05:58:23;;;;;;;9.03;6.47;;;9.80;99.90;;;;;;5249016;28;20648;-69
2021/09/28 06:00:55;;;;;;;9.00;6.70;;;9.90;99.90;;;;;;5252623;28;20253;-71
2021/09/28 06:03:27;;;;;;;9.07;6.70;;;10.00;99.90;;;;;;5253195;28;20201;-64
2021/09/28 06:06:03;;;;;;;8.93;6.60;;;10.10;99.90;;;;;;5252131;28;20307;-66
2021/09/28 06:08:35;;;;;;;10.20;6.80;;;10.10;99.90;;;;;;5252109;28;20208;-72
2021/09/28 06:11:09;;;;;;;12.37;7.27;;;10.10;99.90;;;;;;5251998;28;20247;-69
2021/09/28 06:13:43;;;;;;;10.30;7.27;;;10.20;99.90;;;;;;5249891;28;20220;-66
2021/09/28 06:16:15;;;;;;;9.17;6.50;;;10.10;99.90;;;;;;5251027;28;20237;-68
2021/09/28 06:18:48;;;;;;;9.77;6.27;;;10.20;99.90;;;;;;5251524;28;20207;-64
2021/09/28 06:21:22;;;;;;;8.87;6.40;;;10.20;99.90;;;;;;5251788;28;20224;-69
2021/09/28 06:23:54;;;;;;;9.23;6.47;;;10.30;99.90;;;;;;5251916;28;20219;-68
2021/09/28 06:26:26;;;;;;;8.57;6.47;;;10.50;99.90;;;;;;5251772;28;20547;-69
2021/09/28 06:29:00;;;;;;;8.87;6.20;;;10.70;99.90;;;;;;5251451;28;20200;-67
2021/09/28 06:31:32;;;;;;;6.00;5.40;;;11.30;99.90;;;;;;5251328;28;20204;-70
2021/09/28 06:34:04;;;;;;;9.77;5.07;;;12.30;99.90;;;;;;5254417;28;20513;-70
2021/09/28 06:36:39;;;;;;;9.03;4.17;;;13.50;99.90;;;;;;5251622;28;20240;-74
2021/09/28 06:39:11;;;;;;;7.97;3.83;;;14.80;99.90;;;;;;5251679;28;20208;-67
2021/09/28 06:41:43;;;;;;;4.93;3.90;;;15.80;99.90;;;;;;5251387;28;20651;-67
2021/09/28 06:44:17;;;;;;;8.13;4.13;;;16.60;99.90;;;;;;5250561;28;20208;-68
2021/09/28 06:46:49;;;;;;;6.18;3.65;;;17.20;99.90;;;;;;5251516;28;20209;-68
2021/09/28 06:49:23;;;;;;;5.78;4.03;;;17.30;99.90;;;;;;5249788;28;20604;-67
2021/09/28 06:51:59;;;;;;;5.43;3.88;;;17.10;99.90;;;;;;5251065;28;20212;-68
2021/09/28 06:54:33;;;;;;;5.10;3.72;;;17.60;99.90;;;;;;5251313;28;20201;-68
2021/09/28 06:57:09;;;;;;;4.75;3.30;;;17.70;99.90;;;;;;5251038;28;20228;-69
2021/09/28 06:59:41;;;;;;;4.30;3.58;;;18.00;99.90;;;;;;5250867;28;20530;-70
2021/09/28 07:02:13;;;;;;;10.20;3.40;;;18.60;99.90;;;;;;5251031;28;20232;-69
2021/09/28 07:04:45;;;;;;;5.05;3.28;;;19.00;99.90;;;;;;5250890;28;20201;-70
2021/09/28 07:07:17;;;;;;;5.45;3.13;;;19.00;99.90;;;;;;5249998;28;20204;-67
2021/09/28 07:09:49;;;;;;;5.45;2.95;;;19.10;99.90;;;;;;5250850;28;20266;-69
2021/09/28 07:12:21;;;;;;;6.72;3.72;;;19.20;99.90;;;;;;5250949;28;20235;-68
2021/09/28 07:14:53;;;;;;;7.40;3.65;;;19.30;99.90;;;;;;5249520;28;20200;-67
2021/09/28 07:17:25;;;;;;;7.38;3.90;;;19.40;99.90;;;;;;5250371;28;20220;-64
2021/09/28 07:20:02;;;;;;;5.82;3.95;;;19.40;99.90;;;;;;5251209;28;20521;-66
2021/09/28 07:22:34;;;;;;;6.15;4.20;;;19.20;99.90;;;;;;5250853;28;20185;-68
2021/09/28 07:25:06;;;;;;;5.90;3.78;;;18.60;99.90;;;;;;5250630;28;20220;-67
2021/09/28 07:28:00;;;;;;;8.27;4.50;;;18.10;99.90;;;;;;5230323;28;20227;-69
2021/09/28 07:30:35;;;;;;;9.63;4.93;;;17.60;99.90;;;;;;5229617;28;20635;-68
2021/09/28 07:33:07;;;;;;;6.38;4.20;;;17.20;99.90;;;;;;5229507;28;20272;-66
2021/09/28 07:35:44;;;;;;;7.90;4.75;;;16.70;99.90;;;;;;5229577;28;20547;-66
2021/09/28 07:38:17;;;;;;;8.00;4.47;;;16.40;99.90;;;;;;5229526;28;20225;-71
2021/09/28 07:40:53;;;;;;;8.73;4.57;;;16.20;99.90;;;;;;5228817;28;20217;-69
2021/09/28 07:43:25;;;;;;;9.80;4.83;;;16.00;99.90;;;;;;5243942;28;20222;-70
2021/09/28 07:45:59;;;;;;;8.77;4.90;;;15.80;99.90;;;;;;5249982;28;20212;-66
2021/09/28 07:48:31;;;;;;;5.07;4.50;;;15.50;99.90;;;;;;5249900;28;20210;-67
2021/09/28 07:51:03;;;;;;;7.07;4.60;;;15.40;99.90;;;;;;5250408;28;20529;-68
2021/09/28 07:53:35;;;;;;;5.77;4.47;;;15.00;99.90;;;;;;5250179;28;20223;-67
2021/09/28 07:56:07;;;;;;;10.23;5.77;;;14.80;99.90;;;;;;5248771;28;20205;-53
2021/09/28 07:58:42;;;;;;;7.57;5.20;;;14.60;99.90;;;;;;5248884;28;20220;-44
2021/09/28 08:01:15;;;;;;;7.93;4.90;;;14.60;99.90;;;;;;5248785;28;20553;-50
2021/09/28 08:03:47;;;;;;;7.70;5.37;;;14.70;99.90;;;;;;5249596;28;20282;-43
2021/09/28 08:06:20;;;;;;;7.93;5.80;;;14.70;99.90;;;;;;5249728;28;20213;-52
2021/09/28 08:08:52;;;;;;;6.93;4.93;;;14.80;99.90;;;;;;5248724;28;20217;-43
2021/09/28 08:11:24;;;;;;;6.40;4.20;;;14.60;99.90;;;;;;5250256;28;20208;-67
2021/09/28 08:13:57;;;;;;;8.10;5.17;;;14.70;99.90;;;;;;5251224;28;20216;-68
2021/09/28 08:16:29;;;;;;;8.17;4.60;;;14.50;99.90;;;;;;5250290;28;20235;-64
2021/09/28 08:19:04;;;;;;;10.13;5.20;;;14.50;99.90;;;;;;5253424;28;20275;-63
2021/09/28 08:21:41;;;;;;;7.17;5.10;;;14.50;99.90;;;;;;5251155;28;20236;-69
2021/09/28 08:24:13;;;;;;;6.67;5.37;;;14.40;99.90;;;;;;5251019;28;20220;-68
2021/09/28 08:29:37;;;;;;;8.43;5.17;;;14.30;99.90;;;;;;5251161;28;20625;-67
2021/09/28 08:32:12;;;;;;;7.10;4.87;;;14.30;99.90;;;;;;5250932;28;20204;-68
2021/09/28 08:34:49;;;;;;;7.27;5.40;;;14.30;99.90;;;;;;5248521;28;20216;-67
2021/09/28 08:37:24;;;;;;;7.40;5.10;;;14.30;99.90;;;;;;5248568;28;20233;-65
2021/09/28 08:39:56;;;;;;;13.37;5.83;;;14.40;99.90;;;;;;5243900;28;20230;-65
2021/09/28 08:42:29;;;;;;;6.87;5.40;;;14.60;99.90;;;;;;5248368;28;20208;-69
2021/09/28 08:45:00;;;;;;;7.23;5.20;;;14.60;99.90;;;;;;5249368;28;20201;-66
2021/09/28 08:47:41;;;;;;;6.80;4.87;;;14.70;99.90;;;;;;5249414;28;20208;-65
2021/09/28 08:50:16;;;;;;;6.30;4.87;;;14.60;99.90;;;;;;5248428;28;20219;-67
2021/09/28 08:52:50;;;;;;;8.63;5.03;;;14.50;99.90;;;;;;5248356;28;20238;-67
2021/09/28 08:55:24;;;;;;;7.47;4.50;;;14.60;99.90;;;;;;5249120;28;20276;-64
2021/09/28 08:58:19;;;;;;;8.10;4.83;;;14.80;99.90;;;;;;5249026;28;20239;-68
2021/09/28 09:01:04;;;;;;;7.67;4.30;;;14.90;99.90;;;;;;5248493;28;20245;-65
2021/09/28 09:03:36;;;;;;;6.40;4.43;;;14.80;99.90;;;;;;5249345;28;20231;-69
2021/09/28 09:06:11;;;;;;;5.77;4.47;;;14.70;99.90;;;;;;5250191;28;20228;-66
2021/09/28 09:08:48;;;;;;;9.67;4.80;;;14.60;99.90;;;;;;5249209;28;20208;-67
2021/09/28 09:11:21;;;;;;;6.43;4.70;;;14.50;99.90;;;;;;5249625;28;20223;-67
2021/09/28 09:13:55;;;;;;;7.33;4.23;;;14.60;99.90;;;;;;5250084;28;20212;-66
2021/09/28 09:16:34;;;;;;;6.93;4.50;;;14.50;99.90;;;;;;5249151;28;20212;-66
2021/09/28 09:19:22;;;;;;;7.37;4.30;;;14.60;99.90;;;;;;5249170;28;20610;-65
2021/09/28 09:21:57;;;;;;;8.07;4.40;;;14.70;99.90;;;;;;5249160;28;20185;-66
2021/09/28 09:24:43;;;;;;;7.90;4.60;;;14.80;99.90;;;;;;5248880;28;20173;-67
2021/09/28 09:27:31;;;;;;;6.73;4.03;;;14.80;99.90;;;;;;5248863;28;20486;-64
2021/09/28 09:30:18;;;;;;;6.43;4.00;;;15.00;99.90;;;;;;5249251;28;20216;-70
2021/09/28 09:32:55;;;;;;;7.40;4.47;;;15.10;99.90;;;;;;5247351;28;20518;-68
2021/09/28 09:35:31;;;;;;;7.67;4.30;;;15.20;99.90;;;;;;5250879;28;20211;-64
2021/09/28 09:38:21;;;;;;;8.17;4.30;;;15.30;99.90;;;;;;5252937;28;20664;-68
2021/09/28 09:40:54;;;;;;;6.87;4.10;;;15.30;99.90;;;;;;5252799;28;20322;-68
2021/09/28 09:43:33;;;;;;;5.43;3.43;;;15.40;99.90;;;;;;5252661;28;20233;-64
2021/09/28 09:46:19;;;;;;;6.63;4.77;;;15.40;99.90;;;;;;5252676;28;20292;-66
2021/09/28 09:48:54;;;;;;;9.23;4.07;;;15.60;99.90;;;;;;5252320;28;20286;-67
2021/09/28 09:51:26;;;;;;;5.60;3.90;;;15.70;99.90;;;;;;5251408;28;20216;-66
2021/09/28 09:54:01;;;;;;;8.50;3.77;;;15.80;99.90;;;;;;5251831;28;20229;-64
2021/09/28 09:56:43;;;;;;;5.60;3.80;;;15.70;99.90;;;;;;5252224;28;20200;-65
2021/09/28 09:59:24;;;;;;;6.57;3.40;;;15.70;99.90;;;;;;5252046;28;20266;-65
2021/09/28 10:01:59;;;;;;;6.67;3.50;;;15.70;99.90;;;;;;5250781;28;20240;-65
2021/09/28 10:04:34;;;;;;;4.40;3.33;;;15.90;99.90;;;;;;5252513;28;20700;-67
2021/09/28 10:07:06;;;;;;;3.93;3.30;;;15.90;99.90;;;;;;5252273;28;20207;-66
2021/09/28 10:09:39;;;;;;;6.90;3.40;;;16.00;99.90;;;;;;5252148;28;20233;-65
2021/09/28 10:12:12;;;;;;;4.23;3.30;;;16.00;99.90;;;;;;5252094;28;20208;-67
2021/09/28 10:14:45;;;;;;;7.27;3.53;;;15.90;99.90;;;;;;5251160;28;20663;-66
2021/09/28 10:17:21;;;;;;;6.90;3.53;;;15.90;99.90;;;;;;5252263;28;20239;-66
2021/09/28 10:20:02;;;;;;;8.67;3.83;;;15.90;99.90;;;;;;5252078;28;20315;-65
2021/09/28 10:22:48;;;;;;;10.40;4.80;;;15.90;99.90;;;;;;5256427;28;20514;-66
2021/09/28 10:27:56;;;;;;;11.60;5.27;;;16.00;99.90;;;;;;5251958;28;20223;-66
2021/09/28 10:30:32;;;;;;;8.00;3.33;;;16.10;99.90;;;;;;5251603;28;20224;-64
2021/09/28 10:33:24;;;;;;;5.30;3.43;;;16.20;99.90;;;;;;5251268;28;20656;-66
2021/09/28 10:36:18;;;;;;;5.40;3.13;;;16.20;99.90;;;;;;5251409;28;20748;-65
2021/09/28 10:39:03;;;;;;;5.67;3.07;;;16.30;99.90;;;;;;5251730;28;20220;-67
2021/09/28 10:41:44;;;;;;;8.93;3.10;;;16.40;99.90;;;;;;5250901;28;20584;-63
2021/09/28 10:44:40;;;;;;;7.60;3.03;;;16.50;99.90;;;;;;5250510;28;20375;-70
2021/09/28 10:47:44;;;;;;;4.07;2.70;;;16.50;99.90;;;;;;5251548;28;20293;-64
2021/09/28 10:50:19;;;;;;;7.13;2.73;;;16.40;99.90;;;;;;5247144;28;20569;-71
2021/09/28 10:52:52;;;;;;;4.67;3.07;;;16.40;99.90;;;;;;5251720;28;20216;-69
2021/09/28 10:55:38;;;;;;;5.30;3.10;;;16.40;99.90;;;;;;5251397;28;20220;-64
2021/09/28 10:58:20;;;;;;;3.97;2.40;;;16.30;99.90;;;;;;5250247;28;20212;-68
2021/09/28 11:00:52;;;;;;;3.60;3.13;;;16.20;99.90;;;;;;5250474;28;20225;-64
2021/09/28 11:03:47;;;;;;;5.27;2.47;;;16.20;99.90;;;;;;5251752;28;20596;-66
2021/09/28 11:06:42;;;;;;;5.90;2.60;;;16.10;99.90;;;;;;5251110;28;20260;-63
2021/09/28 11:09:16;;;;;;;6.70;3.20;;;16.20;99.90;;;;;;5251248;28;20205;-67
2021/09/28 11:11:53;;;;;;;3.83;2.40;;;16.20;99.90;;;;;;5250784;28;20708;-66
2021/09/28 11:14:25;;;;;;;8.40;2.47;;;16.20;99.90;;;;;;5251327;28;20208;-64
2021/09/28 11:17:01;;;;;;;3.60;2.33;;;16.30;99.90;;;;;;5250755;28;20236;-64
2021/09/28 11:19:39;;;;;;;6.40;2.40;;;16.40;99.90;;;;;;5250651;28;20686;-64
2021/09/28 11:22:19;;;;;;;3.73;2.50;;;16.50;99.90;;;;;;5250765;28;20243;-64
2021/09/28 11:24:51;;;;;;;3.53;2.50;;;16.50;99.90;;;;;;5249529;28;20215;-66
2021/09/28 11:27:23;;;;;;;5.33;2.43;;;16.60;99.90;;;;;;5250662;28;20649;-65
2021/09/28 11:29:57;;;;;;;2.87;2.40;;;16.70;99.90;;;;;;5250160;28;20287;-68
2021/09/28 11:32:32;;;;;;;4.50;2.30;;;16.80;99.90;;;;;;5250212;28;20228;-69
2021/09/28 11:35:04;;;;;;;3.83;2.77;;;16.80;99.90;;;;;;5250620;28;20647;-67
2021/09/28 11:37:41;;;;;;;3.27;2.60;;;16.80;99.90;;;;;;5250075;28;20316;-69
2021/09/28 11:40:13;;;;;;;5.27;2.53;;;16.90;99.90;;;;;;5250547;28;20201;-67
2021/09/28 11:42:45;;;;;;;6.17;2.60;;;17.00;99.90;;;;;;5248964;28;20308;-67
2021/09/28 11:45:27;;;;;;;4.50;2.40;;;17.00;99.90;;;;;;5250165;28;20195;-63
2021/09/28 11:48:03;;;;;;;5.87;2.70;;;17.00;99.90;;;;;;5249246;28;20236;-68
2021/09/28 11:50:35;;;;;;;5.87;2.60;;;16.90;99.90;;;;;;5250027;28;20204;-64
2021/09/28 11:53:08;;;;;;;3.40;2.47;;;16.90;99.90;;;;;;5250422;28;20346;-67
2021/09/28 11:55:40;;;;;;;5.07;2.37;;;16.90;99.90;;;;;;5250084;28;20209;-65
2021/09/28 11:58:13;;;;;;;4.00;2.63;;;17.00;99.90;;;;;;5249500;28;20290;-67
2021/09/28 12:00:47;;;;;;;8.60;2.87;;;17.10;99.90;;;;;;5248542;28;20233;-65
2021/09/28 12:03:23;;;;;;;3.87;2.60;;;17.20;99.90;;;;;;5249570;28;20239;-67
2021/09/28 12:06:21;;;;;;;3.55;2.38;;;17.40;99.90;;;;;;5250222;28;20232;-67
2021/09/28 12:08:54;;;;;;;2.92;2.60;;;17.40;99.90;;;;;;5250263;28;20229;-67
2021/09/28 12:11:33;;;;;;;3.45;2.75;;;17.50;99.90;;;;;;5250198;28;20687;-68
2021/09/28 12:14:05;;;;;;;5.13;2.92;;;17.40;99.90;;;;;;5249836;28;20224;-68
2021/09/28 12:16:38;;;;;;;7.17;3.13;;;17.40;99.90;;;;;;5248959;28;20205;-68
2021/09/28 12:19:16;;;;;;;4.17;3.00;;;17.40;99.90;;;;;;5243133;28;20228;-68
2021/09/28 12:21:48;;;;;;;6.57;2.83;;;17.50;99.90;;;;;;5249248;28;20219;-64
2021/09/28 12:24:20;;;;;;;3.92;2.80;;;17.80;99.90;;;;;;5249269;28;20221;-66
2021/09/28 12:27:05;;;;;;;8.40;3.08;;;17.90;99.90;;;;;;5249688;28;20499;-63
2021/09/28 12:29:43;;;;;;;6.68;3.22;;;17.90;99.90;;;;;;5249304;28;20229;-72
2021/09/28 12:32:24;;;;;;;5.22;3.10;;;17.90;99.90;;;;;;5248574;28;20207;-67
2021/09/28 12:35:04;;;;;;;5.40;2.93;;;17.80;99.90;;;;;;5250414;28;20224;-68
2021/09/28 12:37:48;;;;;;;4.45;2.75;;;17.70;99.90;;;;;;5248180;28;20203;-66
2021/09/28 12:40:21;;;;;;;3.00;2.70;;;17.70;99.90;;;;;;5248113;28;20555;-66
2021/09/28 12:43:17;;;;;;;3.87;2.60;;;17.90;99.90;;;;;;5248317;28;20193;-64
2021/09/28 12:45:57;;;;;;;4.95;2.88;;;17.90;99.90;;;;;;5249002;28;20224;-64
2021/09/28 12:48:42;;;;;;;5.28;2.95;;;18.00;99.90;;;;;;5249237;28;20205;-64
2021/09/28 12:51:20;;;;;;;9.02;3.70;;;17.90;99.90;;;;;;5248246;28;20244;-70
2021/09/28 12:53:52;;;;;;;7.10;3.50;;;17.80;99.90;;;;;;5248649;28;20188;-66
2021/09/28 12:56:24;;;;;;;6.80;3.42;;;17.80;99.90;;;;;;5249106;28;20680;-64
2021/09/28 12:58:56;;;;;;;5.18;3.50;;;17.80;99.90;;;;;;5248648;28;20220;-64
2021/09/28 13:01:28;;;;;;;5.82;3.00;;;17.80;99.90;;;;;;5248848;28;20248;-64
2021/09/28 13:04:06;;;;;;;9.00;3.70;;;17.80;99.90;;;;;;5247394;28;20196;-66
2021/09/28 13:06:43;;;;;;;3.88;2.80;;;17.80;99.90;;;;;;5248768;28;20228;-63
2021/09/28 13:09:15;;;;;;;5.43;3.13;;;17.70;99.90;;;;;;5252929;28;20204;-63
2021/09/28 13:11:49;;;;;;;4.30;3.25;;;17.60;99.90;;;;;;5255332;28;20221;-66
2021/09/28 13:14:24;;;;;;;6.40;3.17;;;17.50;99.90;;;;;;5255739;28;20658;-66
2021/09/28 13:16:58;;;;;;;8.27;3.03;;;17.30;99.90;;;;;;5255489;28;20230;-64
2021/09/28 13:19:30;;;;;;;4.70;3.03;;;17.30;99.90;;;;;;5256282;28;20646;-63
2021/09/28 13:22:05;;;;;;;4.95;3.30;;;17.10;99.90;;;;;;5256005;28;20544;-68
2021/09/28 13:24:40;;;;;;;6.30;3.10;;;17.10;99.90;;;;;;5255877;28;20204;-66
2021/09/28 13:27:12;;;;;;;3.35;3.03;;;17.00;99.90;;;;;;5256268;28;20232;-67
2021/09/28 13:29:51;;;;;;;6.72;3.25;;;17.00;99.90;;;;;;5254676;28;20299;-65
2021/09/28 13:32:23;;;;;;;4.10;2.83;;;17.00;99.90;;;;;;5255514;28;20224;-64